Time;durP1;ratioP1;P1;durP2;ratioP2;P2;SDS_P1;SDS_P2;PMS_P1;PMS_P2;Temp;Humidity;BMP_temperature;BMP_pressure;BME280_temperature;BME280_humidity;BME280_pressure;Samples;Min_cycle;Max_cycle;Signal;HPM_P1;HPM_P2
2022/05/12 00:02:07;;;;;;;6.07;3.05;;;;;;;12.21;74.59;95106.00;5031997;28;20212;-78
2022/05/12 00:04:35;;;;;;;4.43;2.47;;;;;;;12.17;74.55;95110.47;5031454;28;20205;-78
2022/05/12 00:07:02;;;;;;;4.35;2.58;;;;;;;12.12;74.49;95102.53;5031696;28;20208;-78
2022/05/12 00:09:29;;;;;;;3.35;2.72;;;;;;;12.04;74.78;95102.22;5031460;28;20232;-77
2022/05/12 00:11:56;;;;;;;4.18;2.80;;;;;;;12.04;74.82;95106.84;5031501;28;21003;-78
2022/05/12 00:14:23;;;;;;;7.65;2.90;;;;;;;12.09;74.57;95093.91;5031012;28;20232;-78
2022/05/12 00:16:50;;;;;;;7.32;3.10;;;;;;;12.11;74.40;95101.72;5031821;28;20207;-78
2022/05/12 00:19:18;;;;;;;5.10;2.70;;;;;;;12.17;74.64;95094.19;5031316;28;20634;-78
2022/05/12 00:21:45;;;;;;;3.70;2.53;;;;;;;12.08;74.67;95097.75;5031384;28;20204;-77
2022/05/12 00:24:14;;;;;;;4.88;3.20;;;;;;;12.17;74.61;95094.97;5031376;28;20212;-78
2022/05/12 00:26:42;;;;;;;5.82;3.00;;;;;;;12.04;74.77;95096.78;5030704;28;20832;-78
2022/05/12 00:29:09;;;;;;;6.03;2.63;;;;;;;11.98;75.10;95098.09;5031644;28;20211;-78
2022/05/12 00:31:38;;;;;;;7.40;2.63;;;;;;;11.85;75.39;95101.81;5031351;28;20211;-77
2022/05/12 00:34:06;;;;;;;3.33;2.65;;;;;;;11.83;75.53;95100.53;5031505;28;20233;-78
2022/05/12 00:36:35;;;;;;;5.22;3.20;;;;;;;11.85;75.26;95099.09;5031374;28;20228;-78
2022/05/12 00:39:03;;;;;;;4.18;2.90;;;;;;;11.91;75.11;95095.09;5031201;28;20204;-78
2022/05/12 00:41:30;;;;;;;5.75;2.60;;;;;;;11.87;74.60;95101.50;5030512;28;20208;-78
2022/05/12 00:43:59;;;;;;;8.10;3.17;;;;;;;11.82;74.77;95099.75;5040888;28;20200;-77
2022/05/12 00:46:28;;;;;;;6.18;3.13;;;;;;;11.78;74.66;95092.56;5011743;28;20233;-78
2022/05/12 00:48:59;;;;;;;3.78;2.70;;;;;;;11.69;75.21;95095.28;5025054;28;20232;-78
2022/05/12 00:51:31;;;;;;;3.33;2.35;;;;;;;11.61;75.59;95099.63;5030874;28;20197;-78
2022/05/12 00:54:02;;;;;;;6.38;2.85;;;;;;;11.59;75.70;95095.63;5031271;28;20196;-78
2022/05/12 00:56:30;;;;;;;6.65;2.92;;;;;;;11.52;75.87;95100.72;5031093;28;20223;-78
2022/05/12 00:59:01;;;;;;;3.88;2.95;;;;;;;11.42;76.38;95106.50;5030603;28;20227;-78
2022/05/12 01:01:29;;;;;;;6.68;2.67;;;;;;;11.40;76.36;95104.91;5031317;28;20192;-78
2022/05/12 01:03:59;;;;;;;4.95;2.75;;;;;;;11.38;76.40;95109.03;5030913;28;20208;-77
2022/05/12 01:06:26;;;;;;;4.45;3.45;;;;;;;11.37;76.52;95110.97;5030758;28;20215;-77
2022/05/12 01:08:53;;;;;;;6.75;2.28;;;;;;;11.41;76.50;95116.53;5031239;28;20200;-77
2022/05/12 01:11:22;;;;;;;7.78;3.53;;;;;;;11.34;76.83;95111.59;5030666;28;20273;-77
2022/05/12 01:13:57;;;;;;;7.45;3.45;;;;;;;11.30;77.04;95110.66;5030400;28;20201;-77
2022/05/12 01:16:39;;;;;;;5.38;2.92;;;;;;;11.16;77.15;95112.72;5030721;28;20227;-77
2022/05/12 01:19:08;;;;;;;4.28;2.50;;;;;;;11.09;78.02;95123.25;5019692;28;20193;-77
2022/05/12 01:21:35;;;;;;;4.18;2.70;;;;;;;11.14;77.91;95112.25;5030740;28;20295;-78
2022/05/12 01:24:04;;;;;;;5.45;2.97;;;;;;;11.11;78.17;95115.59;5030730;28;20203;-78
2022/05/12 01:26:33;;;;;;;4.30;2.92;;;;;;;11.09;78.61;95120.53;5030563;28;20215;-78
2022/05/12 01:29:00;;;;;;;3.83;2.70;;;;;;;11.14;78.58;95116.88;5030298;28;20227;-78
2022/05/12 01:31:27;;;;;;;4.32;2.63;;;;;;;11.19;78.26;95114.81;5030877;28;20208;-77
2022/05/12 01:33:54;;;;;;;3.75;2.50;;;;;;;11.15;77.89;95113.84;5030709;28;20223;-77
2022/05/12 01:36:22;;;;;;;4.90;2.85;;;;;;;11.15;78.34;95113.84;5030606;28;20619;-77
2022/05/12 01:38:50;;;;;;;6.78;2.92;;;;;;;11.18;78.49;95120.56;5030694;28;20208;-77
2022/05/12 01:41:18;;;;;;;9.73;3.35;;;;;;;11.16;78.75;95120.88;5030414;28;20218;-77
2022/05/12 01:43:45;;;;;;;4.05;2.83;;;;;;;11.16;78.35;95120.06;5038510;28;20277;-76
2022/05/12 01:46:13;;;;;;;5.13;3.22;;;;;;;11.00;78.58;95122.44;5032427;28;20319;-77
2022/05/12 01:48:40;;;;;;;4.30;2.95;;;;;;;10.98;78.66;95111.13;5031245;28;20208;-76
2022/05/12 01:51:09;;;;;;;6.97;3.15;;;;;;;11.15;77.97;95121.97;5030835;28;20203;-77
2022/05/12 01:53:36;;;;;;;4.65;2.45;;;;;;;11.17;77.65;95127.88;5033912;28;20204;-77
2022/05/12 01:56:05;;;;;;;5.50;3.03;;;;;;;11.02;77.86;95106.66;5034359;28;20224;-77
2022/05/12 01:58:34;;;;;;;6.57;3.30;;;;;;;10.96;77.94;95116.06;5034348;28;20223;-78
2022/05/12 02:01:01;;;;;;;5.75;3.42;;;;;;;10.91;78.25;95124.34;5033797;28;20228;-77
2022/05/12 02:03:28;;;;;;;6.93;3.45;;;;;;;10.93;78.25;95122.13;5034106;28;20231;-78
2022/05/12 02:05:55;;;;;;;5.70;3.15;;;;;;;10.88;78.40;95130.41;5033864;28;20215;-78
2022/05/12 02:08:22;;;;;;;5.82;2.88;;;;;;;10.89;77.78;95126.59;5034195;28;20212;-78
2022/05/12 02:10:50;;;;;;;7.70;3.10;;;;;;;10.87;77.94;95128.81;5033435;28;20235;-77
2022/05/12 02:13:20;;;;;;;7.65;2.83;;;;;;;10.89;77.80;95126.59;5033841;28;20204;-78
2022/05/12 02:15:49;;;;;;;4.85;2.85;;;;;;;10.77;78.28;95129.13;5033274;28;20232;-77
2022/05/12 02:18:19;;;;;;;6.40;3.22;;;;;;;10.75;78.17;95131.34;5033434;28;20196;-78
2022/05/12 02:20:46;;;;;;;5.93;3.00;;;;;;;10.71;78.32;95130.38;5033477;28;20207;-77
2022/05/12 02:23:12;;;;;;;6.30;2.88;;;;;;;10.75;78.07;95132.13;5033850;28;20204;-78
2022/05/12 02:25:39;;;;;;;7.53;3.58;;;;;;;10.76;77.94;95139.16;5034085;28;20211;-77
2022/05/12 02:28:07;;;;;;;4.75;2.95;;;;;;;10.75;77.98;95139.47;5033821;28;20508;-78
2022/05/12 02:30:34;;;;;;;9.98;3.33;;;;;;;10.77;77.74;95150.78;5033321;28;20211;-78
2022/05/12 02:33:03;;;;;;;7.57;3.58;;;;;;;10.72;78.01;95142.81;5033418;28;20203;-78
2022/05/12 02:35:31;;;;;;;8.63;3.10;;;;;;;10.66;78.07;95139.44;5033229;28;20572;-78
2022/05/12 02:37:58;;;;;;;10.98;4.47;;;;;;;10.66;78.42;95137.53;5033426;28;20196;-78
2022/05/12 02:40:28;;;;;;;7.50;3.90;;;;;;;10.58;78.62;95143.72;5033123;28;20718;-78
2022/05/12 02:42:56;;;;;;;7.80;3.55;;;;;;;10.56;78.92;95139.72;5034958;28;20221;-78
2022/05/12 02:45:25;;;;;;;9.80;3.83;;;;;;;10.58;78.96;95143.72;5040918;28;20243;-78
2022/05/12 02:47:52;;;;;;;7.45;3.88;;;;;;;10.60;78.81;95146.94;5032636;28;20751;-77
2022/05/12 02:50:21;;;;;;;8.30;4.18;;;;;;;10.57;79.15;95146.75;5032633;28;20208;-78
2022/05/12 02:52:48;;;;;;;7.45;3.75;;;;;;;10.54;79.43;95139.25;5032759;28;20688;-78
2022/05/12 02:55:15;;;;;;;6.60;3.50;;;;;;;10.57;79.22;95131.28;5032788;28;20236;-78
2022/05/12 02:57:43;;;;;;;4.68;3.05;;;;;;;10.60;79.14;95146.94;5031636;28;20725;-78
2022/05/12 03:00:16;;;;;;;11.07;3.38;;;;;;;10.56;79.23;95137.03;5024337;28;20211;-78
2022/05/12 03:02:42;;;;;;;5.57;3.85;;;;;;;10.59;79.95;95150.75;5018957;28;20239;-78
2022/05/12 03:05:10;;;;;;;4.57;3.33;;;;;;;10.62;79.33;95144.72;5032496;28;20196;-78
2022/05/12 03:07:39;;;;;;;6.18;3.05;;;;;;;10.53;79.64;95146.56;5020004;28;20283;-78
2022/05/12 03:10:06;;;;;;;8.73;3.38;;;;;;;10.51;79.54;95148.81;5032554;28;20228;-79
2022/05/12 03:12:33;;;;;;;5.65;3.90;;;;;;;10.42;80.23;95150.69;5032656;28;20208;-78
2022/05/12 03:15:00;;;;;;;6.38;3.70;;;;;;;10.43;79.97;95149.56;5032068;28;20200;-78
2022/05/12 03:17:27;;;;;;;8.15;3.70;;;;;;;10.60;79.29;95157.75;5032361;28;20211;-78
2022/05/12 03:19:54;;;;;;;7.68;4.18;;;;;;;10.80;78.92;95150.94;5032573;28;20208;-78
2022/05/12 03:22:21;;;;;;;6.93;3.38;;;;;;;11.16;78.20;95147.97;5032572;28;20665;-78
2022/05/12 03:24:49;;;;;;;7.95;3.58;;;;;;;11.74;76.27;95158.34;5031832;28;20221;-78
2022/05/12 03:27:17;;;;;;;11.32;6.13;;;;;;;12.37;74.08;95158.69;5032447;28;20262;-79
2022/05/12 03:29:44;;;;;;;8.45;4.35;;;;;;;12.71;72.13;95163.94;5032471;28;20204;-79
2022/05/12 03:32:12;;;;;;;7.47;3.55;;;;;;;12.89;71.01;95174.75;5032182;28;20612;-79
2022/05/12 03:34:39;;;;;;;10.02;4.10;;;;;;;13.27;70.20;95164.59;5032019;28;20291;-78
2022/05/12 03:37:08;;;;;;;8.23;5.10;;;;;;;14.10;67.57;95169.97;5031973;28;20311;-78
2022/05/12 03:39:36;;;;;;;7.28;4.57;;;;;;;14.71;65.41;95156.47;5031828;28;20247;-78
2022/05/12 03:42:06;;;;;;;4.85;3.42;;;;;;;15.66;63.69;95162.50;5031478;28;20271;-79
2022/05/12 03:44:49;;;;;;;7.55;4.38;;;;;;;16.01;62.28;95166.22;5042768;28;20234;-79
2022/05/12 03:47:19;;;;;;;7.32;3.58;;;;;;;16.57;60.07;95163.41;5031516;28;20270;-78
2022/05/12 03:49:46;;;;;;;7.53;5.03;;;;;;;17.27;58.29;95158.09;5032197;28;20710;-78
2022/05/12 03:52:13;;;;;;;7.97;4.97;;;;;;;17.49;56.88;95156.63;5031433;28;20208;-79
2022/05/12 03:54:41;;;;;;;6.43;3.58;;;;;;;18.22;55.39;95151.09;5031746;28;20197;-78
2022/05/12 03:57:09;;;;;;;10.35;4.40;;;;;;;18.32;54.96;95158.72;5031490;28;20315;-79
2022/05/12 03:59:38;;;;;;;6.57;4.93;;;;;;;19.23;52.39;95152.44;5031998;28;20227;-80
2022/05/12 04:02:05;;;;;;;6.90;5.43;;;;;;;19.02;52.19;95154.84;5031657;28;20235;-79
2022/05/12 04:04:32;;;;;;;8.63;5.03;;;;;;;19.69;50.54;95158.59;5031506;28;20205;-78
2022/05/12 04:07:00;;;;;;;7.10;4.68;;;;;;;20.27;48.69;95155.38;5031421;28;20331;-78
2022/05/12 04:09:28;;;;;;;8.70;5.60;;;;;;;20.01;49.28;95159.00;5031202;28;20220;-79
2022/05/12 04:11:55;;;;;;;5.80;4.82;;;;;;;21.48;46.17;95157.28;5031235;28;20213;-79
2022/05/12 04:14:23;;;;;;;7.05;5.10;;;;;;;21.53;45.66;95153.38;5030573;28;20228;-79
2022/05/12 04:16:50;;;;;;;8.80;5.10;;;;;;;22.35;43.92;95149.03;5031295;28;20232;-81
2022/05/12 04:19:17;;;;;;;5.05;4.50;;;;;;;22.62;43.00;95152.25;5031292;28;20287;-81
2022/05/12 04:21:44;;;;;;;10.68;5.55;;;;;;;21.46;45.46;95147.78;5030883;28;20225;-81
2022/05/12 04:24:11;;;;;;;5.20;4.72;;;;;;;21.48;45.24;95151.75;5030855;28;20223;-81
2022/05/12 04:26:40;;;;;;;7.63;5.50;;;;;;;22.29;43.82;95153.34;5031030;28;20678;-82
2022/05/12 04:29:08;;;;;;;8.65;5.10;;;;;;;23.26;42.02;95147.56;5031354;28;20211;-82
2022/05/12 04:31:36;;;;;;;7.95;5.38;;;;;;;23.56;41.08;95143.63;5031051;28;20740;-83
2022/05/12 04:36:47;;;;;;;6.90;5.68;;;;;;;24.24;39.85;95141.44;5011525;28;20270;-81
2022/05/12 04:39:14;;;;;;;8.68;5.53;;;;;;;23.97;40.06;95153.00;5018534;28;20279;-79
2022/05/12 04:41:41;;;;;;;10.48;6.00;;;;;;;23.99;40.32;95139.53;5030951;28;20224;-80
2022/05/12 04:44:08;;;;;;;8.20;5.68;;;;;;;23.74;40.78;95153.47;5040094;28;20231;-80
2022/05/12 04:46:38;;;;;;;9.77;6.00;;;;;;;24.14;39.80;95153.34;5031515;28;20193;-79
2022/05/12 04:49:06;;;;;;;9.70;6.57;;;;;;;23.67;40.43;95160.97;5030289;28;20223;-79
2022/05/12 04:51:33;;;;;;;7.93;5.90;;;;;;;24.31;39.57;95166.34;5032872;28;20203;-79
2022/05/12 04:54:01;;;;;;;7.28;5.65;;;;;;;25.17;37.64;95166.63;5030765;28;20220;-80
2022/05/12 04:56:28;;;;;;;7.93;5.95;;;;;;;25.60;37.65;95158.72;5031264;28;20752;-80
2022/05/12 04:58:55;;;;;;;10.90;5.82;;;;;;;26.47;36.52;95164.53;5030314;28;20196;-80
2022/05/12 05:01:22;;;;;;;9.93;6.45;;;;;;;25.80;37.05;95170.84;5030715;28;20215;-79
2022/05/12 05:03:50;;;;;;;11.07;6.88;;;;;;;24.91;38.29;95166.00;5030448;28;20197;-80
2022/05/12 05:06:17;;;;;;;7.90;6.47;;;;;;;25.62;37.49;95164.69;5028886;28;20224;-81
2022/05/12 05:08:44;;;;;;;7.53;6.03;;;;;;;26.63;36.26;95172.25;5027925;28;20212;-80
2022/05/12 05:11:11;;;;;;;9.52;6.55;;;;;;;26.92;35.27;95162.28;5029944;28;20215;-80
2022/05/12 05:13:37;;;;;;;9.43;6.22;;;;;;;26.20;36.55;95172.78;5044328;28;20224;-80
2022/05/12 05:16:05;;;;;;;11.43;6.43;;;;;;;26.75;35.88;95168.13;5029068;28;20231;-81
2022/05/12 05:18:33;;;;;;;10.00;6.47;;;;;;;26.10;36.69;95176.44;5029920;28;20196;-81
2022/05/12 05:21:01;;;;;;;10.45;7.28;;;;;;;26.22;36.17;95179.91;5031019;28;20224;-83
2022/05/12 05:23:28;;;;;;;11.85;6.80;;;;;;;27.50;34.16;95160.22;5030311;28;20239;-81
2022/05/12 05:25:55;;;;;;;12.05;7.20;;;;;;;27.98;33.46;95167.34;5029380;28;20193;-82
2022/05/12 05:28:22;;;;;;;10.05;6.85;;;;;;;28.57;32.70;95163.78;5032926;28;20200;-81
2022/05/12 05:30:49;;;;;;;10.73;6.32;;;;;;;28.50;32.75;95161.16;5034939;28;20200;-82
2022/05/12 05:33:17;;;;;;;8.48;6.57;;;;;;;28.51;32.51;95162.72;5034476;28;20442;-84
2022/05/12 05:35:43;;;;;;;11.20;6.35;;;;;;;27.96;32.95;95166.97;5032386;28;20283;-80
2022/05/12 05:38:12;;;;;;;14.95;7.78;;;;;;;28.54;32.64;95168.22;5031630;28;20196;-82
2022/05/12 05:40:38;;;;;;;10.10;6.90;;;;;;;27.78;32.93;95163.72;5033705;28;20659;-83
2022/05/12 05:43:06;;;;;;;8.38;7.43;;;;;;;27.35;34.04;95172.00;5037329;28;20694;-83
2022/05/12 05:45:33;;;;;;;8.93;6.70;;;;;;;27.79;33.02;95162.53;5036004;28;20228;-80
2022/05/12 05:48:04;;;;;;;13.63;6.47;;;;;;;27.99;33.52;95171.69;5024698;28;20204;-80
2022/05/12 05:53:23;;;;;;;10.20;6.90;;;;;;;28.89;31.82;95168.69;5033247;28;20216;-80
2022/05/12 05:53:24;;;;;;;11.63;7.10;;;;;;;28.84;31.68;95169.19;5023512;28;20310;-81
2022/05/12 05:55:52;;;;;;;10.30;6.15;;;;;;;28.89;31.56;95163.91;5031392;28;20555;-82
2022/05/12 05:58:19;;;;;;;15.98;7.30;;;;;;;27.44;34.02;95175.84;5032013;28;20207;-79
2022/05/12 06:00:46;;;;;;;9.07;7.00;;;;;;;29.18;32.16;95168.81;5025816;28;20266;-84
2022/05/12 06:03:13;;;;;;;12.75;7.47;;;;;;;28.25;33.01;95173.59;5033308;28;20231;-81
2022/05/12 06:05:41;;;;;;;12.25;7.15;;;;;;;28.94;31.60;95168.97;5033381;28;20220;-85
2022/05/12 06:08:10;;;;;;;9.52;7.30;;;;;;;28.63;31.90;95164.84;5033070;28;20331;-80
2022/05/12 06:10:39;;;;;;;9.43;6.55;;;;;;;28.73;31.55;95171.41;5033005;28;20308;-87
2022/05/12 06:13:06;;;;;;;9.60;6.80;;;;;;;29.36;31.38;95166.41;5033153;28;20302;-78
2022/05/12 06:15:34;;;;;;;8.80;7.00;;;;;;;29.63;30.61;95168.94;5032386;28;20723;-78
2022/05/12 06:18:06;;;;;;;10.48;7.40;;;;;;;28.83;31.75;95165.66;5032824;28;20634;-83
2022/05/12 06:20:33;;;;;;;14.85;7.60;;;;;;;29.62;30.95;95161.78;5032489;28;20623;-79
2022/05/12 06:23:00;;;;;;;9.75;6.45;;;;;;;29.82;30.18;95156.84;5032757;28;20216;-78
2022/05/12 06:25:27;;;;;;;8.80;5.68;;;;;;;29.31;30.70;95164.91;5025275;28;20575;-78
2022/05/12 06:27:56;;;;;;;5.20;4.47;;;;;;;29.74;30.10;95169.44;5032076;28;20240;-82
2022/05/12 06:30:22;;;;;;;5.75;4.32;;;;;;;29.83;29.98;95166.03;5029689;28;20208;-79
2022/05/12 06:32:51;;;;;;;9.75;5.30;;;;;;;30.26;29.66;95165.69;5033273;28;20238;-81
2022/05/12 06:35:20;;;;;;;7.03;4.88;;;;;;;29.18;30.35;95171.63;5030477;28;20247;-78
2022/05/12 06:37:47;;;;;;;11.02;5.03;;;;;;;29.47;30.24;95164.16;5032296;28;20282;-80
2022/05/12 06:40:14;;;;;;;7.65;4.18;;;;;;;29.80;29.53;95166.91;5025772;28;20208;-80
2022/05/12 06:42:42;;;;;;;4.78;3.70;;;;;;;30.90;28.06;95163.81;5019791;28;20228;-83
2022/05/12 06:45:11;;;;;;;5.45;4.57;;;;;;;31.48;26.99;95167.22;5014438;28;20325;-77
2022/05/12 06:47:38;;;;;;;8.77;5.68;;;;;;;31.30;27.24;95161.41;5018905;28;20321;-83
2022/05/12 06:50:07;;;;;;;8.82;5.55;;;;;;;29.59;30.00;95169.03;5024182;28;20212;-79
2022/05/12 06:52:33;;;;;;;7.97;5.30;;;;;;;29.22;30.11;95161.16;5019794;28;20290;-77
2022/05/12 06:55:00;;;;;;;7.45;5.30;;;;;;;30.42;29.16;95156.44;5020369;28;20581;-84
2022/05/12 06:57:28;;;;;;;9.32;5.20;;;;;;;30.78;28.05;95162.59;5028911;28;20219;-80
2022/05/12 06:59:55;;;;;;;6.47;4.90;;;;;;;31.63;27.31;95153.50;5032118;28;20292;-83
2022/05/12 07:02:25;;;;;;;8.32;5.05;;;;;;;31.83;27.54;95156.09;5032441;28;20266;-81
2022/05/12 07:04:53;;;;;;;6.68;5.05;;;;;;;32.08;27.25;95153.97;5032267;28;20229;-73
2022/05/12 07:07:21;;;;;;;9.18;5.88;;;;;;;31.31;27.77;95165.75;5031937;28;20737;-79
2022/05/12 07:09:50;;;;;;;8.10;5.80;;;;;;;31.15;28.31;95161.09;5031812;28;20315;-80
2022/05/12 07:12:17;;;;;;;9.13;6.05;;;;;;;30.21;29.05;95163.41;5031868;28;20643;-78
2022/05/12 07:14:44;;;;;;;8.00;5.75;;;;;;;29.19;30.22;95167.59;5032229;28;20281;-81
2022/05/12 07:17:11;;;;;;;6.95;5.93;;;;;;;27.92;32.00;95178.19;5032081;28;20208;-80
2022/05/12 07:19:39;;;;;;;8.20;5.60;;;;;;;27.86;32.24;95167.97;5031817;28;20670;-76
2022/05/12 07:27:37;;;;;;;8.15;6.38;;;;;;;27.86;32.76;95159.63;5031526;28;20584;-81
2022/05/12 07:30:05;;;;;;;10.57;6.25;;;;;;;28.55;31.89;95157.88;5031521;28;20197;-84
2022/05/12 07:32:32;;;;;;;9.23;6.32;;;;;;;28.62;31.38;95149.34;5031989;28;20215;-77
2022/05/12 07:35:01;;;;;;;10.40;6.22;;;;;;;27.48;33.41;95151.50;5031815;28;20253;-77
2022/05/12 07:37:28;;;;;;;9.57;5.97;;;;;;;26.73;34.59;95154.66;5031075;28;20232;-79
2022/05/12 07:39:55;;;;;;;8.65;5.88;;;;;;;26.24;35.46;95163.63;5031344;28;20283;-78
2022/05/12 07:42:22;;;;;;;10.27;5.63;;;;;;;26.06;35.40;95156.28;5030588;28;20586;-79
2022/05/12 07:44:49;;;;;;;6.32;5.03;;;;;;;25.74;35.89;95158.59;5041770;28;20239;-76
2022/05/12 07:47:15;;;;;;;6.10;5.47;;;;;;;25.83;36.04;95158.94;5029369;28;20227;-82
2022/05/12 07:49:43;;;;;;;9.50;6.03;;;;;;;25.41;36.74;95154.56;5030883;28;20235;-83
2022/05/12 07:52:14;;;;;;;8.82;5.93;;;;;;;26.24;36.57;95152.50;5021933;28;20209;-76
2022/05/12 07:54:41;;;;;;;8.93;6.50;;;;;;;27.12;35.68;95147.72;5023099;28;20199;-81
2022/05/12 07:57:07;;;;;;;8.82;6.10;;;;;;;27.19;35.19;95142.06;5030956;28;20212;-81
2022/05/12 07:59:34;;;;;;;10.02;6.63;;;;;;;26.73;35.19;95151.88;5030886;28;20207;-79
2022/05/12 08:02:02;;;;;;;9.35;6.47;;;;;;;26.77;35.31;95147.03;5030709;28;20208;-82
2022/05/12 08:04:29;;;;;;;14.23;7.90;;;;;;;25.77;36.97;95152.22;5031448;28;20224;-81
2022/05/12 08:06:58;;;;;;;12.50;8.00;;;;;;;25.47;37.29;95148.13;5030920;28;20228;-81
2022/05/12 08:09:26;;;;;;;10.40;7.00;;;;;;;25.95;36.98;95140.94;5030498;28;20263;-80
2022/05/12 08:11:53;;;;;;;11.13;7.28;;;;;;;24.34;39.61;95148.91;5030498;28;20207;-79
2022/05/12 08:14:20;;;;;;;8.57;7.13;;;;;;;24.60;38.69;95145.59;5031268;28;20211;-88
2022/05/12 08:16:47;;;;;;;10.43;6.90;;;;;;;24.79;39.00;95147.84;5033081;28;20703;-78
2022/05/12 08:19:14;;;;;;;7.15;5.82;;;;;;;25.23;37.06;95138.06;5031626;28;20228;-80
2022/05/12 08:21:41;;;;;;;12.60;7.93;;;;;;;25.06;38.15;95141.75;5031139;28;20204;-75
2022/05/12 08:24:08;;;;;;;12.40;7.43;;;;;;;24.91;39.39;95131.94;5030806;28;20219;-78
2022/05/12 08:26:36;;;;;;;8.75;7.00;;;;;;;24.57;39.11;95140.09;5030996;28;20219;-79
2022/05/12 08:29:03;;;;;;;10.60;7.65;;;;;;;24.58;39.52;95139.69;5030766;28;20239;-80
2022/05/12 08:31:30;;;;;;;13.00;7.97;;;;;;;25.37;38.33;95129.59;5030400;28;20203;-80
2022/05/12 08:33:57;;;;;;;15.23;7.43;;;;;;;24.73;39.70;95130.09;5030840;28;20204;-78
2022/05/12 08:36:24;;;;;;;9.20;6.95;;;;;;;24.42;39.25;95144.94;5030280;28;20248;-79
2022/05/12 08:38:54;;;;;;;8.63;6.55;;;;;;;23.96;40.30;95132.03;5030720;28;20225;-80
2022/05/12 08:41:29;;;;;;;6.53;4.70;;;;;;;24.63;35.49;95133.72;5034942;28;20211;-79
2022/05/12 08:44:00;;;;;;;7.75;5.78;;;;;;;24.89;38.01;95139.88;5047734;28;20198;-80
2022/05/12 08:46:41;;;;;;;4.53;3.80;;;;;;;25.60;33.99;95133.75;5030769;28;20193;-81
2022/05/12 08:49:21;;;;;;;8.38;5.03;;;;;;;25.02;37.13;95132.66;5030544;28;20228;-77
2022/05/12 08:51:51;;;;;;;9.52;5.50;;;;;;;23.82;37.15;95139.59;5030892;28;20200;-78
2022/05/12 08:54:23;;;;;;;5.47;4.32;;;;;;;24.19;36.84;95136.31;5030217;28;20208;-81
2022/05/12 08:56:55;;;;;;;6.10;4.80;;;;;;;24.96;35.66;95128.78;5029855;28;20189;-78
2022/05/12 08:59:23;;;;;;;6.15;5.22;;;;;;;24.56;36.56;95128.22;5030160;28;20185;-81
2022/05/12 09:02:00;;;;;;;7.22;4.95;;;;;;;24.52;36.89;95121.13;5032544;28;20220;-81
2022/05/12 09:04:45;;;;;;;7.78;4.18;;;;;;;24.74;36.44;95134.41;5022339;28;20192;-79
2022/05/12 09:07:18;;;;;;;6.18;4.43;;;;;;;24.05;39.65;95126.84;5032623;28;20232;-81
2022/05/12 09:09:55;;;;;;;9.00;4.70;;;;;;;23.72;38.19;95130.94;5034068;28;20890;-82
2022/05/12 09:12:33;;;;;;;6.85;4.72;;;;;;;23.87;37.09;95128.13;5033315;28;20299;-80
2022/05/12 09:15:06;;;;;;;6.18;4.50;;;;;;;24.26;37.31;95120.47;5028357;28;20231;-78
2022/05/12 09:17:38;;;;;;;5.72;3.78;;;;;;;23.91;37.30;95115.88;5034745;28;20196;-76
2022/05/12 09:20:09;;;;;;;5.13;4.18;;;;;;;23.62;37.71;95125.44;5037946;28;20673;-75
2022/05/12 09:22:37;;;;;;;5.32;4.30;;;;;;;23.51;37.59;95130.19;5040142;28;20184;-77
2022/05/12 09:25:05;;;;;;;6.47;4.35;;;;;;;24.45;36.41;95116.44;5033225;28;20802;-80
2022/05/12 09:27:35;;;;;;;5.32;4.07;;;;;;;24.49;36.99;95121.91;5033672;28;20228;-80
2022/05/12 09:30:06;;;;;;;4.88;3.90;;;;;;;24.45;37.76;95116.44;5034503;28;20200;-79
2022/05/12 09:32:37;;;;;;;6.15;3.92;;;;;;;24.70;36.03;95111.50;5033387;28;20544;-80
2022/05/12 09:35:13;;;;;;;5.45;3.88;;;;;;;23.83;37.03;95133.66;5032913;28;20238;-80
2022/05/12 09:37:42;;;;;;;3.83;3.30;;;;;;;24.63;36.03;95122.63;5033502;28;20246;-81
2022/05/12 09:40:22;;;;;;;4.90;3.53;;;;;;;24.88;35.00;95111.34;5033112;28;20724;-75
2022/05/12 09:42:50;;;;;;;5.93;3.60;;;;;;;24.30;35.94;95121.25;5034746;28;20207;-72
2022/05/12 09:45:27;;;;;;;4.38;3.60;;;;;;;23.69;37.52;95119.88;5043106;28;20240;-73
2022/05/12 09:48:18;;;;;;;5.13;4.10;;;;;;;23.76;38.28;95122.63;5033008;28;20678;-78
2022/05/12 09:50:46;;;;;;;4.07;3.25;;;;;;;24.06;36.72;95117.34;5033605;28;20224;-75
2022/05/12 09:53:14;;;;;;;4.88;3.60;;;;;;;24.66;37.42;95116.28;5032751;28;20200;-78
2022/05/12 09:55:43;;;;;;;4.60;3.58;;;;;;;24.42;36.83;95111.69;5032695;28;20262;-75
2022/05/12 09:58:31;;;;;;;4.55;3.28;;;;;;;24.56;35.20;95103.28;5033771;28;20201;-80
2022/05/12 10:01:18;;;;;;;4.72;3.38;;;;;;;24.30;36.45;95109.38;5033365;28;20605;-71
2022/05/12 10:09:21;;;;;;;4.20;3.42;;;;;;;24.90;36.17;95089.56;5033156;28;20713;-80
2022/05/12 10:12:07;;;;;;;5.03;3.47;;;;;;;24.60;34.60;95089.41;5033870;28;20212;-72
2022/05/12 10:14:40;;;;;;;5.35;3.40;;;;;;;24.22;34.94;95085.66;5033530;28;20661;-82
2022/05/12 10:17:19;;;;;;;3.78;3.00;;;;;;;24.00;35.18;95083.00;5032513;28;20250;-79
2022/05/12 10:19:48;;;;;;;5.60;3.25;;;;;;;24.41;35.67;95082.41;5032797;28;20193;-72
2022/05/12 10:22:17;;;;;;;5.78;3.50;;;;;;;25.17;34.88;95073.13;5032622;28;20559;-78
2022/05/12 10:24:55;;;;;;;4.35;3.25;;;;;;;25.33;34.01;95069.81;5032899;28;20211;-79
2022/05/12 10:27:33;;;;;;;4.25;3.25;;;;;;;25.19;32.78;95064.38;5032818;28;20188;-72
2022/05/12 10:30:12;;;;;;;4.95;3.28;;;;;;;25.00;33.24;95058.25;5032880;28;20196;-77
2022/05/12 10:32:49;;;;;;;3.60;3.05;;;;;;;24.83;34.34;95050.03;5032351;28;20274;-75
2022/05/12 10:35:22;;;;;;;4.63;2.83;;;;;;;24.93;32.08;95051.94;5013304;28;20233;-79
2022/05/12 10:37:59;;;;;;;5.72;2.95;;;;;;;24.90;32.14;95059.06;5029228;28;20195;-79
2022/05/12 10:40:35;;;;;;;4.47;2.90;;;;;;;24.80;32.20;95041.34;5033664;28;20234;-75
2022/05/12 10:43:26;;;;;;;5.95;2.90;;;;;;;25.47;32.68;95048.25;5035141;28;20203;-80
2022/05/12 10:46:01;;;;;;;2.50;2.30;;;;;;;25.31;30.23;95041.69;5047310;28;20239;-76
2022/05/12 10:48:45;;;;;;;2.30;2.10;;;;;;;24.56;26.77;95045.09;5032261;28;20560;-77
2022/05/12 10:51:23;;;;;;;2.97;1.95;;;;;;;24.86;27.40;95038.94;5032531;28;20200;-78
2022/05/12 10:54:02;;;;;;;3.70;2.28;;;;;;;24.62;27.52;95037.91;5032631;28;20192;-75
2022/05/12 10:56:37;;;;;;;2.25;2.00;;;;;;;24.42;28.18;95036.91;5032942;28;20203;-70
2022/05/12 10:59:37;;;;;;;2.50;1.92;;;;;;;24.32;27.51;95035.00;5032444;28;20238;-79
2022/05/12 11:02:09;;;;;;;3.35;2.05;;;;;;;24.71;28.28;95035.50;5032785;28;20250;-76
2022/05/12 11:04:42;;;;;;;9.48;2.60;;;;;;;24.68;30.25;95039.06;5032089;28;20231;-71
2022/05/12 11:07:15;;;;;;;3.10;2.60;;;;;;;24.33;30.23;95037.34;5032265;28;20220;-79
2022/05/12 11:09:48;;;;;;;2.60;2.40;;;;;;;24.61;29.93;95024.47;5032264;28;20216;-80
2022/05/12 11:12:23;;;;;;;3.25;2.95;;;;;;;25.10;31.18;95023.28;5032203;28;20223;-79
2022/05/12 11:14:57;;;;;;;5.10;2.90;;;;;;;24.87;31.76;95028.63;5032293;28;20610;-78
2022/05/12 11:17:33;;;;;;;3.85;2.53;;;;;;;24.62;31.23;95024.06;5032177;28;20203;-73
2022/05/12 11:20:22;;;;;;;4.88;2.50;;;;;;;25.21;31.72;95021.19;5031866;28;20200;-73
2022/05/12 11:23:03;;;;;;;3.53;2.33;;;;;;;24.82;30.15;95020.75;5031641;28;20287;-76
2022/05/12 11:25:35;;;;;;;4.97;2.60;;;;;;;25.11;30.96;95013.78;5019104;28;20206;-79
2022/05/12 11:31:07;;;;;;;2.92;2.65;;;;;;;25.08;32.42;95009.84;5032096;28;20232;-78
2022/05/12 11:33:39;;;;;;;3.00;2.70;;;;;;;25.25;31.78;95008.09;5019126;28;20196;-75
2022/05/12 11:36:10;;;;;;;3.67;3.05;;;;;;;25.54;31.94;95002.22;5044736;28;20330;-79
2022/05/12 11:38:47;;;;;;;5.00;3.28;;;;;;;25.76;30.94;94992.44;5031482;28;20228;-80
2022/05/12 11:41:40;;;;;;;3.08;2.78;;;;;;;26.00;31.60;94988.53;5031172;28;20199;-80
2022/05/12 11:44:26;;;;;;;3.30;2.67;;;;;;;25.78;31.53;94976.94;5041740;28;20239;-81
2022/05/12 11:47:31;;;;;;;4.38;2.55;;;;;;;25.79;31.32;94972.97;5088094;27;21135;-76
2022/05/12 11:50:26;;;;;;;4.88;2.85;;;;;;;25.59;31.80;94974.00;5067974;28;20183;-74
2022/05/12 11:53:03;;;;;;;3.40;2.80;;;;;;;25.49;32.93;94978.47;5087337;28;20256;-81
2022/05/12 11:55:35;;;;;;;4.78;3.00;;;;;;;25.78;31.14;94978.94;5088570;28;20190;-79
2022/05/12 11:58:14;;;;;;;5.03;3.20;;;;;;;26.12;31.12;94965.75;5072271;28;20309;-78
2022/05/12 12:00:57;;;;;;;4.75;3.10;;;;;;;26.11;30.95;94958.59;5054035;28;20195;-79
2022/05/12 12:03:59;;;;;;;4.07;2.88;;;;;;;25.69;31.80;94964.78;5054769;28;20585;-78